Time;durP1;ratioP1;P1;durP2;ratioP2;P2;SDS_P1;SDS_P2;PMS_P1;PMS_P2;Temp;Humidity;BMP_temperature;BMP_pressure;BME280_temperature;BME280_humidity;BME280_pressure;Samples;Min_cycle;Max_cycle;Signal;HPM_P1;HPM_P2
2022/09/01 00:02:07;;;;;;;1.95;0.90;;;17.60;99.90;;;;;;4893086;29;20417;-67
2022/09/01 00:04:37;;;;;;;2.13;1.02;;;17.60;99.90;;;;;;4894741;29;20517;-66
2022/09/01 00:07:07;;;;;;;1.10;0.80;;;17.60;99.90;;;;;;4893887;29;20393;-66
2022/09/01 00:09:33;;;;;;;1.23;0.95;;;17.60;99.90;;;;;;4895133;29;20405;-67
2022/09/01 00:12:00;;;;;;;1.27;1.02;;;17.50;99.90;;;;;;4896647;29;20397;-67
2022/09/01 00:14:30;;;;;;;1.88;0.75;;;17.50;99.90;;;;;;4911167;29;20411;-67
2022/09/01 00:16:56;;;;;;;1.52;0.98;;;17.50;99.90;;;;;;4910993;29;20794;-67
2022/09/01 00:19:22;;;;;;;1.52;0.95;;;17.50;99.90;;;;;;4912134;29;20436;-67
2022/09/01 00:21:48;;;;;;;1.02;0.90;;;17.40;99.90;;;;;;4912462;29;20738;-67
2022/09/01 00:24:16;;;;;;;1.17;0.90;;;17.50;99.90;;;;;;4893733;29;20408;-67
2022/09/01 00:26:42;;;;;;;1.80;1.00;;;17.40;99.90;;;;;;4909992;29;20389;-67
2022/09/01 00:29:08;;;;;;;1.40;0.80;;;17.30;99.90;;;;;;4913040;29;20476;-67
2022/09/01 00:31:34;;;;;;;1.73;1.00;;;17.30;99.90;;;;;;4898946;29;20496;-67
2022/09/01 00:34:01;;;;;;;1.48;0.90;;;17.30;99.90;;;;;;4898635;29;20416;-67
2022/09/01 00:36:27;;;;;;;1.75;1.00;;;17.20;99.90;;;;;;4897781;29;20393;-68
2022/09/01 00:38:53;;;;;;;1.27;0.73;;;17.20;99.90;;;;;;4916691;29;20558;-67
2022/09/01 00:41:21;;;;;;;1.67;0.90;;;17.20;99.90;;;;;;4898217;29;20824;-68
2022/09/01 00:43:54;;;;;;;1.48;1.00;;;17.00;99.90;;;;;;4899252;29;20413;-68
2022/09/01 00:46:32;;;;;;;1.02;0.88;;;17.00;99.90;;;;;;4898715;29;20516;-68
2022/09/01 00:49:03;;;;;;;1.20;0.90;;;17.10;99.90;;;;;;4897846;29;20763;-68
2022/09/01 00:51:29;;;;;;;1.38;1.17;;;17.00;99.90;;;;;;4897244;29;20396;-67
2022/09/01 00:53:57;;;;;;;2.38;0.93;;;16.90;99.90;;;;;;4913795;29;20665;-68
2022/09/01 00:56:23;;;;;;;1.75;1.00;;;16.80;99.90;;;;;;4898253;29;20406;-67
2022/09/01 00:58:50;;;;;;;1.17;0.97;;;16.80;99.90;;;;;;4898681;29;20614;-67
2022/09/01 01:01:16;;;;;;;1.65;0.88;;;16.80;99.90;;;;;;4914476;29;20412;-67
2022/09/01 01:03:43;;;;;;;1.00;0.90;;;16.70;99.90;;;;;;4913223;29;20421;-67
2022/09/01 01:06:09;;;;;;;1.13;0.80;;;16.70;99.90;;;;;;4897618;29;20393;-67
2022/09/01 01:08:38;;;;;;;2.05;1.00;;;16.70;99.90;;;;;;4913012;29;20397;-67
2022/09/01 01:11:08;;;;;;;1.15;0.80;;;16.70;99.90;;;;;;4913026;29;20708;-67
2022/09/01 01:13:56;;;;;;;1.17;0.90;;;16.60;99.90;;;;;;4897659;29;20630;-67
2022/09/01 01:16:25;;;;;;;1.58;0.70;;;16.50;99.90;;;;;;4915354;29;20780;-68
2022/09/01 01:18:51;;;;;;;1.02;0.93;;;16.40;99.90;;;;;;4898270;29;20634;-68
2022/09/01 01:24:21;;;;;;;0.80;0.80;;;16.30;99.90;;;;;;4915413;29;20448;-67
2022/09/01 01:26:46;;;;;;;1.70;1.00;;;16.40;99.90;;;;;;4897491;29;20405;-67
2022/09/01 01:29:13;;;;;;;1.35;0.80;;;16.40;99.90;;;;;;4910863;29;20393;-68
2022/09/01 01:31:39;;;;;;;2.40;0.90;;;16.40;99.90;;;;;;4912744;29;20485;-67
2022/09/01 01:34:06;;;;;;;1.53;1.00;;;16.50;99.90;;;;;;4896466;29;20401;-67
2022/09/01 01:36:36;;;;;;;1.38;0.98;;;16.50;99.90;;;;;;4895671;29;20397;-68
2022/09/01 01:39:11;;;;;;;1.65;1.17;;;16.50;99.90;;;;;;4912213;29;20394;-67
2022/09/01 01:41:43;;;;;;;1.10;1.00;;;16.40;99.90;;;;;;4897544;29;20829;-67
2022/09/01 01:44:11;;;;;;;1.25;0.85;;;16.40;99.90;;;;;;4898326;29;20413;-68
2022/09/01 01:46:41;;;;;;;0.90;0.80;;;16.40;99.90;;;;;;4899052;29;20417;-68
2022/09/01 01:49:10;;;;;;;1.23;0.65;;;16.30;99.90;;;;;;4897824;29;20409;-68
2022/09/01 01:51:36;;;;;;;1.13;1.00;;;16.30;99.90;;;;;;4903207;29;20432;-67
2022/09/01 01:54:04;;;;;;;2.30;1.00;;;16.30;99.90;;;;;;4903129;29;20492;-67
2022/09/01 01:56:31;;;;;;;1.33;0.88;;;16.20;99.90;;;;;;4903882;29;20488;-67
2022/09/01 01:58:58;;;;;;;1.75;0.90;;;16.20;99.90;;;;;;4903766;29;20401;-67
2022/09/01 02:01:27;;;;;;;1.80;1.00;;;16.20;99.90;;;;;;4904902;29;20400;-68
2022/09/01 02:03:54;;;;;;;1.35;0.90;;;16.20;99.90;;;;;;4904393;29;20432;-67
2022/09/01 02:06:23;;;;;;;1.40;1.00;;;16.10;99.90;;;;;;4921407;29;20496;-68
2022/09/01 02:08:51;;;;;;;0.88;0.80;;;16.10;99.90;;;;;;4901694;29;20393;-67
2022/09/01 02:11:17;;;;;;;1.98;0.85;;;16.00;99.90;;;;;;4918171;29;20395;-68
2022/09/01 02:13:45;;;;;;;1.08;0.88;;;15.90;99.90;;;;;;4902272;29;20409;-68
2022/09/01 02:16:11;;;;;;;1.05;0.90;;;15.90;99.90;;;;;;4901437;29;20417;-67
2022/09/01 02:18:41;;;;;;;2.20;0.95;;;15.90;99.90;;;;;;4900774;29;20423;-67
2022/09/01 02:21:10;;;;;;;1.50;0.88;;;15.90;99.90;;;;;;4899534;29;20506;-67
2022/09/01 02:23:37;;;;;;;1.42;0.80;;;15.90;99.90;;;;;;4916032;29;20528;-67
2022/09/01 02:26:05;;;;;;;1.77;0.90;;;15.90;99.90;;;;;;4901028;29;20718;-67
2022/09/01 02:28:35;;;;;;;2.23;0.93;;;15.90;99.90;;;;;;4901198;29;20408;-67
2022/09/01 02:31:02;;;;;;;1.70;0.80;;;15.90;99.90;;;;;;4919269;29;20923;-67
2022/09/01 02:33:29;;;;;;;1.88;1.08;;;15.90;99.90;;;;;;4901613;29;20429;-67
2022/09/01 02:35:59;;;;;;;1.70;1.10;;;15.80;99.90;;;;;;4901786;29;20848;-67
2022/09/01 02:38:28;;;;;;;2.22;1.10;;;15.70;99.90;;;;;;4901283;29;20408;-67
2022/09/01 02:40:55;;;;;;;1.00;0.80;;;15.70;99.90;;;;;;4918223;29;20393;-67
2022/09/01 02:43:21;;;;;;;1.20;0.95;;;15.60;99.90;;;;;;4903911;29;20667;-67
2022/09/01 02:45:56;;;;;;;1.55;1.10;;;15.70;99.90;;;;;;4903751;29;20831;-67
2022/09/01 02:48:34;;;;;;;1.15;0.95;;;15.60;99.90;;;;;;4902979;29;20408;-67
2022/09/01 02:51:01;;;;;;;0.98;0.85;;;15.60;99.90;;;;;;4902217;29;20412;-68
2022/09/01 02:53:33;;;;;;;2.05;0.90;;;15.60;99.90;;;;;;4918582;29;20413;-68
2022/09/01 02:56:00;;;;;;;1.77;1.10;;;15.60;99.90;;;;;;4917696;29;20399;-67
2022/09/01 02:58:28;;;;;;;1.50;1.00;;;15.50;99.90;;;;;;4902097;29;20524;-68
2022/09/01 03:00:56;;;;;;;0.82;0.82;;;15.50;99.90;;;;;;4901337;29;20782;-68
2022/09/01 03:03:22;;;;;;;1.55;1.27;;;15.50;99.90;;;;;;4903132;29;20484;-68
2022/09/01 03:05:55;;;;;;;1.40;0.90;;;15.40;99.90;;;;;;4919329;29;20400;-67
2022/09/01 03:08:22;;;;;;;1.10;1.00;;;15.30;99.90;;;;;;4917839;29;20423;-67
2022/09/01 03:10:48;;;;;;;1.42;1.00;;;15.30;99.90;;;;;;4917687;29;20572;-68
2022/09/01 03:13:17;;;;;;;1.05;0.95;;;15.20;99.90;;;;;;4901927;29;20393;-68
2022/09/01 03:15:43;;;;;;;1.75;0.82;;;15.30;99.90;;;;;;4902611;29;20828;-68
2022/09/01 03:18:10;;;;;;;1.30;1.10;;;15.30;99.90;;;;;;4901616;29;20409;-68
2022/09/01 03:20:38;;;;;;;1.08;0.77;;;15.30;99.90;;;;;;4901892;29;20404;-68
2022/09/01 03:23:09;;;;;;;1.52;0.93;;;15.20;99.90;;;;;;4918397;29;20483;-68
2022/09/01 03:25:36;;;;;;;1.15;0.90;;;15.20;99.90;;;;;;4902767;29;20412;-69
2022/09/01 03:28:03;;;;;;;0.80;0.77;;;15.20;99.90;;;;;;4903140;29;20389;-68
2022/09/01 03:30:30;;;;;;;1.20;0.90;;;15.20;99.90;;;;;;4901802;29;20790;-68
2022/09/01 03:32:57;;;;;;;1.13;1.00;;;15.20;99.90;;;;;;4916926;29;20420;-68
2022/09/01 03:35:25;;;;;;;1.08;0.90;;;15.20;99.90;;;;;;4899811;29;20501;-68
2022/09/01 03:37:51;;;;;;;1.20;1.10;;;15.20;99.90;;;;;;4914763;29;20393;-68
2022/09/01 03:40:18;;;;;;;1.07;0.97;;;15.10;99.90;;;;;;4897305;29;20776;-68
2022/09/01 03:42:44;;;;;;;3.15;1.00;;;15.10;99.90;;;;;;4915788;29;20400;-68
2022/09/01 03:45:14;;;;;;;2.70;1.00;;;15.10;99.90;;;;;;4901317;29;20438;-68
2022/09/01 03:47:42;;;;;;;2.77;0.97;;;15.10;99.90;;;;;;4900466;29;20444;-68
2022/09/01 03:50:21;;;;;;;2.88;1.30;;;15.00;99.90;;;;;;4900248;29;20433;-68
2022/09/01 03:56:10;;;;;;;1.67;1.08;;;15.10;99.90;;;;;;4916269;29;20397;-68
2022/09/01 03:58:36;;;;;;;2.17;1.02;;;15.00;99.90;;;;;;4898647;29;20553;-67
2022/09/01 04:01:01;;;;;;;3.60;1.30;;;15.00;99.90;;;;;;4897385;29;20649;-68
2022/09/01 04:03:30;;;;;;;1.00;1.00;;;15.00;99.90;;;;;;4896915;29;20406;-68
2022/09/01 04:05:58;;;;;;;1.63;1.13;;;14.90;99.90;;;;;;4915591;29;20393;-68
2022/09/01 04:08:28;;;;;;;1.27;1.10;;;14.90;99.90;;;;;;4912772;29;20735;-68
2022/09/01 04:10:54;;;;;;;2.15;1.00;;;14.90;99.90;;;;;;4914119;29;20558;-68
2022/09/01 04:13:29;;;;;;;1.27;0.98;;;14.80;99.90;;;;;;4896030;29;20460;-68
2022/09/01 04:15:55;;;;;;;2.45;1.20;;;14.80;99.90;;;;;;4894025;29;20685;-67
2022/09/01 04:18:22;;;;;;;1.70;1.13;;;14.80;99.90;;;;;;4892568;29;20435;-68
2022/09/01 04:20:50;;;;;;;1.50;0.85;;;14.80;99.90;;;;;;4891771;29;20563;-68
2022/09/01 04:23:32;;;;;;;2.10;1.10;;;14.80;99.90;;;;;;4909408;29;20843;-68
2022/09/01 04:26:09;;;;;;;2.38;1.08;;;14.80;99.90;;;;;;4891681;29;20805;-68
2022/09/01 04:28:38;;;;;;;2.78;1.20;;;14.70;99.90;;;;;;4909149;29;20587;-67
2022/09/01 04:31:13;;;;;;;1.80;1.10;;;14.80;99.90;;;;;;4892013;29;20405;-68
2022/09/01 04:33:39;;;;;;;2.10;1.30;;;14.70;99.90;;;;;;4893599;29;20508;-68
2022/09/01 04:36:19;;;;;;;1.77;1.20;;;14.70;99.90;;;;;;4892836;29;20418;-68
2022/09/01 04:38:48;;;;;;;1.15;0.95;;;14.60;99.90;;;;;;4893098;29;20682;-68
2022/09/01 04:41:16;;;;;;;3.20;1.20;;;14.70;99.90;;;;;;4909919;29;20412;-68
2022/09/01 04:43:44;;;;;;;2.60;1.10;;;14.60;99.90;;;;;;4894513;29;20444;-68
2022/09/01 04:46:13;;;;;;;3.05;1.25;;;14.70;99.90;;;;;;4911508;29;20405;-68
2022/09/01 04:48:42;;;;;;;3.20;1.10;;;14.60;99.90;;;;;;4895827;29;20414;-68
2022/09/01 04:51:09;;;;;;;3.72;1.30;;;14.60;99.90;;;;;;4896793;29;20401;-68
2022/09/01 04:53:35;;;;;;;2.88;1.10;;;14.60;99.90;;;;;;4895102;29;20663;-68
2022/09/01 04:56:06;;;;;;;2.55;1.30;;;14.50;99.90;;;;;;4907327;29;20393;-68
2022/09/01 04:58:32;;;;;;;2.88;1.25;;;14.50;99.90;;;;;;4907740;29;20940;-68
2022/09/01 05:00:59;;;;;;;2.58;1.27;;;14.60;99.90;;;;;;4889469;29;20412;-68
2022/09/01 05:03:25;;;;;;;1.48;1.10;;;14.60;99.90;;;;;;4905902;29;20500;-68
2022/09/01 05:05:52;;;;;;;2.00;1.10;;;14.60;99.90;;;;;;4885889;29;20488;-68
2022/09/01 05:08:21;;;;;;;1.40;1.10;;;14.60;99.90;;;;;;4887768;29;20881;-67
2022/09/01 05:10:51;;;;;;;1.90;1.33;;;14.70;99.90;;;;;;4907602;29;20404;-67
2022/09/01 05:13:18;;;;;;;2.00;1.30;;;14.60;99.90;;;;;;4891600;29;20749;-67
2022/09/01 05:15:46;;;;;;;2.58;1.30;;;14.60;99.90;;;;;;4890343;29;20531;-67
2022/09/01 05:18:22;;;;;;;2.30;1.20;;;14.60;99.90;;;;;;4888554;29;20404;-67
2022/09/01 05:20:51;;;;;;;2.50;1.57;;;14.60;99.90;;;;;;4887963;29;20465;-67
2022/09/01 05:23:18;;;;;;;2.15;1.20;;;14.60;99.90;;;;;;4888411;29;20401;-67
2022/09/01 05:25:47;;;;;;;3.00;1.48;;;14.70;99.90;;;;;;4905114;29;20405;-67
2022/09/01 05:28:14;;;;;;;1.63;1.33;;;14.70;99.90;;;;;;4908893;29;20860;-67
2022/09/01 05:30:40;;;;;;;2.33;1.45;;;14.70;99.90;;;;;;4889906;29;20408;-67
2022/09/01 05:33:10;;;;;;;1.73;1.25;;;14.60;99.90;;;;;;4891542;29;20411;-67
2022/09/01 05:35:39;;;;;;;3.70;1.30;;;14.70;99.90;;;;;;4889896;29;20405;-67
2022/09/01 05:38:09;;;;;;;2.58;1.38;;;14.70;99.90;;;;;;4889163;29;20405;-68
2022/09/01 05:40:39;;;;;;;2.45;1.50;;;14.60;99.90;;;;;;4905856;29;20796;-67
2022/09/01 05:43:11;;;;;;;1.55;1.15;;;14.60;99.90;;;;;;4906389;29;20627;-67
2022/09/01 05:45:41;;;;;;;2.88;1.20;;;14.60;99.90;;;;;;4888651;29;20513;-67
2022/09/01 05:48:08;;;;;;;2.53;1.40;;;14.70;99.90;;;;;;4906612;29;20674;-68
2022/09/01 05:50:34;;;;;;;2.80;1.70;;;14.70;99.90;;;;;;4890624;29;20796;-67
2022/09/01 05:53:01;;;;;;;2.67;1.80;;;14.70;99.90;;;;;;4907071;29;20828;-67
2022/09/01 05:55:27;;;;;;;1.95;1.40;;;14.70;99.90;;;;;;4890661;29;20508;-67
2022/09/01 05:57:52;;;;;;;2.23;1.60;;;14.70;99.90;;;;;;4890563;29;20801;-67
2022/09/01 06:00:19;;;;;;;2.78;1.40;;;14.80;99.90;;;;;;4904816;29;20397;-67
2022/09/01 06:02:45;;;;;;;3.72;1.90;;;14.80;99.90;;;;;;4889927;29;20530;-67
2022/09/01 06:05:14;;;;;;;2.75;1.42;;;14.80;99.90;;;;;;4908569;29;20460;-67
2022/09/01 06:07:41;;;;;;;1.80;1.60;;;14.90;99.90;;;;;;4905165;29;20595;-67
2022/09/01 06:10:08;;;;;;;2.10;1.40;;;15.00;99.90;;;;;;4903206;29;20393;-67
2022/09/01 06:12:34;;;;;;;2.83;1.33;;;15.10;99.90;;;;;;4886462;29;20429;-67
2022/09/01 06:15:00;;;;;;;1.58;1.30;;;15.10;99.90;;;;;;4886934;29;20599;-67
2022/09/01 06:17:28;;;;;;;3.40;1.40;;;15.10;99.90;;;;;;4886488;29;20413;-67
2022/09/01 06:19:55;;;;;;;1.80;1.50;;;15.10;99.90;;;;;;4885856;29;20480;-67
2022/09/01 06:22:22;;;;;;;1.40;1.20;;;15.20;99.90;;;;;;4884457;29;20837;-67
2022/09/01 06:24:50;;;;;;;1.77;1.38;;;15.20;99.90;;;;;;4902437;29;20606;-67
2022/09/01 06:27:17;;;;;;;2.20;1.48;;;15.30;99.90;;;;;;4904261;29;20638;-67
2022/09/01 06:29:44;;;;;;;2.42;1.50;;;15.30;99.90;;;;;;4885462;29;20401;-68
2022/09/01 06:32:11;;;;;;;1.57;1.00;;;15.30;99.90;;;;;;4887631;29;20429;-68
2022/09/01 06:34:42;;;;;;;2.58;1.48;;;15.40;99.90;;;;;;4906648;29;20532;-68
2022/09/01 06:37:09;;;;;;;1.80;1.30;;;15.50;99.90;;;;;;4890699;29;20766;-68
2022/09/01 06:39:35;;;;;;;3.45;1.30;;;15.50;99.90;;;;;;4907276;29;20560;-68
2022/09/01 06:42:01;;;;;;;2.80;1.30;;;15.50;99.90;;;;;;4905865;29;20492;-68
2022/09/01 06:44:29;;;;;;;3.10;1.40;;;15.60;99.90;;;;;;4890117;29;20693;-68
2022/09/01 06:46:55;;;;;;;2.38;1.38;;;15.60;99.90;;;;;;4907119;29;20416;-68
2022/09/01 06:49:31;;;;;;;3.05;1.10;;;15.70;99.90;;;;;;4890494;29;20397;-67
2022/09/01 06:51:57;;;;;;;2.53;1.20;;;15.80;99.90;;;;;;4889179;29;20389;-68
2022/09/01 06:54:24;;;;;;;1.25;1.10;;;15.90;99.90;;;;;;4889994;29;20701;-68
2022/09/01 06:56:50;;;;;;;2.13;1.30;;;15.90;99.90;;;;;;4886782;29;20424;-68
2022/09/01 06:59:16;;;;;;;2.90;1.30;;;16.00;99.90;;;;;;4886496;29;20806;-67
2022/09/01 07:01:42;;;;;;;1.52;1.10;;;16.00;99.90;;;;;;4887083;29;20445;-67
2022/09/01 07:04:09;;;;;;;1.43;0.83;;;16.00;99.90;;;;;;4886485;29;20774;-67
2022/09/01 07:06:35;;;;;;;1.00;0.90;;;16.10;99.90;;;;;;4887890;29;20463;-67
2022/09/01 07:09:02;;;;;;;1.70;0.90;;;16.20;99.90;;;;;;4902538;29;20651;-67
2022/09/01 07:11:31;;;;;;;2.20;0.90;;;16.20;99.90;;;;;;4887312;29;20397;-67
2022/09/01 07:14:00;;;;;;;1.50;0.95;;;16.20;99.90;;;;;;4903279;29;20460;-67
2022/09/01 07:16:28;;;;;;;1.77;0.90;;;16.30;99.90;;;;;;4903041;29;20678;-67
2022/09/01 07:18:57;;;;;;;0.98;0.73;;;16.40;99.90;;;;;;4902559;29;20460;-66
2022/09/01 07:21:24;;;;;;;3.67;2.03;;;16.50;99.90;;;;;;4901449;29;20717;-67
2022/09/01 07:23:50;;;;;;;3.58;3.25;;;16.50;99.90;;;;;;4901877;29;20558;-67
2022/09/01 07:26:18;;;;;;;6.45;5.60;;;16.60;99.90;;;;;;4902782;29;20520;-67
2022/09/01 07:28:49;;;;;;;2.83;2.08;;;16.70;99.90;;;;;;4898902;29;20393;-67
2022/09/01 07:31:27;;;;;;;3.35;1.05;;;16.70;99.90;;;;;;4883281;29;20407;-67
2022/09/01 07:33:57;;;;;;;0.95;0.70;;;16.70;99.90;;;;;;4897238;29;20421;-68
2022/09/01 07:36:23;;;;;;;1.27;0.77;;;16.80;99.90;;;;;;4890579;29;20437;-68
2022/09/01 07:38:52;;;;;;;0.90;0.60;;;16.80;99.90;;;;;;4891188;29;20721;-68
2022/09/01 07:41:20;;;;;;;1.00;0.70;;;16.90;99.90;;;;;;4890459;29;20397;-68
2022/09/01 07:43:51;;;;;;;0.98;0.60;;;17.00;99.90;;;;;;4889428;29;20440;-68
2022/09/01 07:46:18;;;;;;;0.90;0.80;;;17.00;99.90;;;;;;4891868;29;21095;-68
2022/09/01 07:48:47;;;;;;;0.90;0.60;;;17.10;99.90;;;;;;4906209;29;20397;-68
2022/09/01 07:51:18;;;;;;;1.75;1.58;;;17.10;99.90;;;;;;4906990;29;20425;-67
2022/09/01 07:53:44;;;;;;;1.08;0.80;;;17.20;99.90;;;;;;4888701;29;20442;-67
2022/09/01 07:56:11;;;;;;;0.43;0.40;;;17.20;99.90;;;;;;4886800;29;21021;-67
2022/09/01 07:58:39;;;;;;;0.70;0.50;;;17.30;99.90;;;;;;4888344;29;20464;-68
2022/09/01 08:01:10;;;;;;;0.50;0.50;;;17.40;99.90;;;;;;4886544;29;20409;-68
2022/09/01 08:03:36;;;;;;;1.30;0.60;;;17.40;99.90;;;;;;4903473;29;20713;-68
2022/09/01 08:06:06;;;;;;;1.20;0.60;;;17.50;99.90;;;;;;4906392;29;21081;-67
2022/09/01 08:08:33;;;;;;;3.75;0.68;;;17.60;99.90;;;;;;4886322;29;20639;-69
2022/09/01 08:10:59;;;;;;;0.85;0.60;;;17.70;99.90;;;;;;4898463;29;20381;-71
2022/09/01 08:13:24;;;;;;;0.60;0.60;;;17.70;99.90;;;;;;4883140;29;20405;-68
2022/09/01 08:15:50;;;;;;;1.10;0.50;;;17.70;99.90;;;;;;4900923;29;20496;-68
2022/09/01 08:18:16;;;;;;;0.52;0.43;;;17.80;99.90;;;;;;4899948;29;20424;-68
2022/09/01 08:20:44;;;;;;;1.17;0.60;;;17.90;99.90;;;;;;4881736;29;20658;-68
2022/09/01 08:23:12;;;;;;;1.55;0.60;;;17.90;99.90;;;;;;4880736;29;20589;-68
2022/09/01 08:25:38;;;;;;;0.60;0.60;;;18.00;99.90;;;;;;4879214;29;20694;-68
2022/09/01 08:28:04;;;;;;;1.77;0.85;;;18.00;99.90;;;;;;4895317;29;20401;-68
2022/09/01 08:30:31;;;;;;;0.95;0.55;;;18.10;99.90;;;;;;4878232;29;20382;-68
2022/09/01 08:32:57;;;;;;;1.52;0.60;;;18.10;99.90;;;;;;4895040;29;20496;-69
2022/09/01 08:35:24;;;;;;;0.50;0.40;;;18.20;99.90;;;;;;4879605;29;20643;-69
2022/09/01 08:37:49;;;;;;;0.73;0.55;;;18.20;99.90;;;;;;4897156;29;20930;-68
2022/09/01 08:40:19;;;;;;;1.53;0.90;;;18.20;99.90;;;;;;4879369;29;20950;-69
2022/09/01 08:43:12;;;;;;;2.42;1.92;;;18.30;99.90;;;;;;4880350;29;20420;-68
2022/09/01 08:45:46;;;;;;;3.65;1.88;;;18.40;99.90;;;;;;4913995;29;20416;-68
2022/09/01 08:48:21;;;;;;;1.00;0.82;;;18.40;99.90;;;;;;4914039;29;20660;-69
2022/09/01 08:50:55;;;;;;;5.10;1.05;;;18.40;99.90;;;;;;4916876;29;20393;-67
2022/09/01 08:53:30;;;;;;;0.65;0.52;;;18.50;99.90;;;;;;4882512;29;20674;-68
2022/09/01 08:55:57;;;;;;;0.70;0.55;;;18.50;99.90;;;;;;4883381;29;20404;-68
2022/09/01 08:58:23;;;;;;;1.23;0.60;;;18.50;99.90;;;;;;4879138;29;20685;-68
2022/09/01 09:01:03;;;;;;;1.77;0.82;;;18.60;99.90;;;;;;4892479;29;20812;-68
2022/09/01 09:04:02;;;;;;;0.80;0.55;;;18.70;99.90;;;;;;4890179;29;20404;-68
2022/09/01 09:06:44;;;;;;;0.90;0.60;;;18.70;99.90;;;;;;4875161;29;20493;-68
2022/09/01 09:09:10;;;;;;;2.90;0.53;;;18.80;99.90;;;;;;4911011;29;20428;-68
2022/09/01 09:11:45;;;;;;;2.40;0.80;;;18.90;99.90;;;;;;4898280;29;20393;-68
2022/09/01 09:14:32;;;;;;;5.70;0.95;;;19.10;99.90;;;;;;4916480;29;20393;-68
2022/09/01 09:16:59;;;;;;;3.50;0.80;;;19.20;99.90;;;;;;4917219;29;20588;-68
2022/09/01 09:19:30;;;;;;;1.08;0.70;;;19.20;99.90;;;;;;4900597;29;20511;-68
2022/09/01 09:21:59;;;;;;;1.85;0.88;;;19.20;99.90;;;;;;4897415;29;20640;-68
2022/09/01 09:24:59;;;;;;;1.33;0.80;;;19.30;99.90;;;;;;4879147;29;20710;-68
2022/09/01 09:27:28;;;;;;;0.80;0.57;;;19.40;99.90;;;;;;4878074;29;20662;-68
2022/09/01 09:30:18;;;;;;;0.40;0.40;;;19.50;99.90;;;;;;4911566;29;20551;-68
2022/09/01 09:33:02;;;;;;;0.60;0.50;;;19.30;99.90;;;;;;4898187;29;20540;-68
2022/09/01 09:35:33;;;;;;;1.52;0.60;;;19.30;99.90;;;;;;4880079;29;20721;-68
2022/09/01 09:38:17;;;;;;;2.13;0.50;;;19.30;99.90;;;;;;4896515;29;20393;-68
2022/09/01 09:41:12;;;;;;;0.70;0.40;;;19.30;99.90;;;;;;4893648;29;20721;-68
2022/09/01 09:43:57;;;;;;;0.80;0.40;;;19.30;99.90;;;;;;4877626;29;20397;-68
2022/09/01 09:46:25;;;;;;;0.90;0.67;;;19.30;99.90;;;;;;4898545;29;20720;-68
2022/09/01 09:49:24;;;;;;;0.50;0.50;;;19.40;99.90;;;;;;4910149;29;20404;-68
2022/09/01 09:52:13;;;;;;;0.80;0.50;;;19.40;99.90;;;;;;4904040;29;20892;-68
2022/09/01 09:54:57;;;;;;;1.20;0.40;;;19.50;99.90;;;;;;4889294;29;20399;-68
2022/09/01 09:57:23;;;;;;;0.55;0.40;;;19.50;99.90;;;;;;4890380;29;20436;-69
2022/09/01 10:00:15;;;;;;;1.10;0.70;;;19.50;99.90;;;;;;4892719;29;20390;-69
2022/09/01 10:02:43;;;;;;;0.70;0.60;;;19.60;99.90;;;;;;4893171;29;20599;-69
2022/09/01 10:05:50;;;;;;;0.68;0.55;;;19.60;99.90;;;;;;4893515;29;20890;-69
2022/09/01 10:08:36;;;;;;;1.95;0.60;;;19.80;99.90;;;;;;4891516;29;20401;-68
2022/09/01 10:11:03;;;;;;;0.40;0.40;;;19.80;99.90;;;;;;4921527;29;20397;-70
2022/09/01 10:13:34;;;;;;;1.20;0.50;;;19.90;99.90;;;;;;4891875;29;20394;-69
2022/09/01 10:16:03;;;;;;;1.08;0.50;;;20.10;99.90;;;;;;4913899;29;20471;-69
2022/09/01 10:18:34;;;;;;;0.50;0.50;;;20.10;99.90;;;;;;4897349;29;20491;-70
2022/09/01 10:21:13;;;;;;;0.60;0.50;;;20.20;99.90;;;;;;4888891;29;20408;-69
2022/09/01 10:23:40;;;;;;;1.20;0.60;;;20.20;99.90;;;;;;4889710;29;20483;-69
2022/09/01 10:26:13;;;;;;;1.80;0.90;;;20.20;99.90;;;;;;4905833;29;20958;-69
2022/09/01 10:28:48;;;;;;;0.50;0.50;;;20.20;99.90;;;;;;4906707;29;20405;-69
2022/09/01 10:31:14;;;;;;;0.60;0.50;;;20.30;99.90;;;;;;4904894;29;20756;-69
2022/09/01 10:33:40;;;;;;;0.70;0.50;;;20.30;99.90;;;;;;4906056;29;20401;-69
2022/09/01 10:36:06;;;;;;;0.90;0.73;;;20.30;99.90;;;;;;4887829;29;20606;-69
2022/09/01 10:38:32;;;;;;;0.50;0.50;;;20.30;99.90;;;;;;4887757;29;20401;-69
2022/09/01 10:41:08;;;;;;;1.02;0.50;;;20.40;99.90;;;;;;4885816;29;20389;-69
2022/09/01 10:43:40;;;;;;;0.47;0.47;;;20.40;99.90;;;;;;4898999;29;20389;-69
2022/09/01 10:46:21;;;;;;;2.75;0.95;;;20.50;99.90;;;;;;4913814;29;20449;-69
2022/09/01 10:48:52;;;;;;;3.10;0.98;;;20.50;99.90;;;;;;4915297;29;20832;-69
2022/09/01 10:51:18;;;;;;;1.02;0.52;;;20.50;99.90;;;;;;4884171;29;20674;-69
2022/09/01 10:53:43;;;;;;;0.50;0.50;;;20.50;99.90;;;;;;4914271;29;20508;-69
2022/09/01 10:56:34;;;;;;;1.17;0.50;;;20.50;99.90;;;;;;4910785;29;20389;-69
2022/09/01 10:59:10;;;;;;;0.60;0.60;;;20.50;99.90;;;;;;4878923;29;20778;-68
2022/09/01 11:01:38;;;;;;;0.88;0.65;;;20.60;99.90;;;;;;4891833;29;20675;-69
2022/09/01 11:04:06;;;;;;;1.10;0.60;;;20.60;99.90;;;;;;4891986;29;20816;-69
2022/09/01 11:06:40;;;;;;;0.40;0.40;;;20.60;99.90;;;;;;4893337;29;20612;-69
2022/09/01 11:09:27;;;;;;;0.80;0.45;;;20.70;99.90;;;;;;4915043;29;20400;-69
2022/09/01 11:12:17;;;;;;;0.75;0.50;;;20.90;99.90;;;;;;4890559;29;20730;-68
2022/09/01 11:15:23;;;;;;;0.85;0.55;;;21.00;99.90;;;;;;4919179;29;20485;-69
2022/09/01 11:17:52;;;;;;;0.60;0.60;;;21.10;99.90;;;;;;4878439;29;20413;-69
2022/09/01 11:20:34;;;;;;;1.08;0.60;;;21.10;99.90;;;;;;4901062;29;20609;-69
2022/09/01 11:23:11;;;;;;;0.43;0.43;;;21.10;99.90;;;;;;4880332;29;20401;-69
2022/09/01 11:25:48;;;;;;;1.33;0.60;;;21.00;99.90;;;;;;4905815;29;20476;-69
2022/09/01 11:28:14;;;;;;;0.80;0.60;;;21.10;99.90;;;;;;4877121;29;20617;-69
2022/09/01 11:30:57;;;;;;;1.20;0.70;;;21.50;99.90;;;;;;4906864;29;20484;-69
2022/09/01 11:33:47;;;;;;;2.80;0.90;;;22.00;99.90;;;;;;4892348;29;20418;-69
2022/09/01 11:36:35;;;;;;;1.40;0.63;;;22.50;99.90;;;;;;4893614;29;20428;-69
2022/09/01 11:39:09;;;;;;;1.57;0.67;;;23.00;99.90;;;;;;4897663;29;20401;-70
2022/09/01 11:41:53;;;;;;;0.52;0.50;;;23.30;99.90;;;;;;4879301;29;20400;-70
2022/09/01 11:44:56;;;;;;;1.60;0.50;;;23.60;99.90;;;;;;4911705;29;20990;-70
2022/09/01 11:47:37;;;;;;;0.68;0.50;;;23.70;99.90;;;;;;4881628;29;21015;-70
2022/09/01 11:50:26;;;;;;;0.63;0.50;;;23.50;99.90;;;;;;4900448;29;20922;-70
2022/09/01 11:52:59;;;;;;;1.05;0.50;;;23.20;99.90;;;;;;4899340;29;21331;-70
2022/09/01 11:55:47;;;;;;;0.60;0.40;;;23.00;99.90;;;;;;4896325;29;20644;-70
2022/09/01 11:58:27;;;;;;;1.48;0.63;;;23.30;99.90;;;;;;4881248;29;20673;-70
2022/09/01 12:00:55;;;;;;;2.22;0.60;;;23.40;99.90;;;;;;4910965;29;20710;-70
2022/09/01 12:03:25;;;;;;;1.77;0.73;;;23.50;99.90;;;;;;4892547;29;20603;-70
2022/09/01 12:05:58;;;;;;;1.70;0.60;;;23.90;99.90;;;;;;4877688;29;20897;-69
2022/09/01 12:08:26;;;;;;;1.10;0.60;;;24.20;99.90;;;;;;4876247;29;20404;-69
2022/09/01 12:11:22;;;;;;;0.43;0.43;;;24.50;99.90;;;;;;4869063;29;20707;-69
2022/09/01 12:14:06;;;;;;;1.17;0.52;;;24.70;99.90;;;;;;4879257;29;20539;-69
2022/09/01 12:16:35;;;;;;;0.90;0.57;;;25.00;99.90;;;;;;4863608;29;20762;-69
2022/09/01 12:19:02;;;;;;;0.60;0.60;;;25.30;99.90;;;;;;4866537;29;20420;-69
2022/09/01 12:21:33;;;;;;;1.90;0.80;;;25.60;99.90;;;;;;4867031;29;20393;-69
2022/09/01 12:24:20;;;;;;;0.82;0.47;;;25.80;99.90;;;;;;4882247;29;20622;-69
2022/09/01 12:26:49;;;;;;;0.80;0.43;;;26.00;99.40;;;;;;4871656;29;20441;-69
2022/09/01 12:29:16;;;;;;;1.85;0.45;;;26.00;97.90;;;;;;4877658;29;20397;-69
2022/09/01 12:31:45;;;;;;;1.00;0.63;;;26.00;97.90;;;;;;4874790;29;20451;-69
2022/09/01 12:34:31;;;;;;;0.60;0.40;;;26.10;97.60;;;;;;4878290;29;20480;-69
2022/09/01 12:37:10;;;;;;;2.25;0.68;;;26.10;97.50;;;;;;4912147;29;20405;-69
2022/09/01 12:39:42;;;;;;;1.25;0.60;;;26.10;97.30;;;;;;4897167;29;20856;-70
2022/09/01 12:42:20;;;;;;;0.82;0.50;;;26.00;97.30;;;;;;4880067;29;20397;-69
2022/09/01 12:45:04;;;;;;;1.48;0.65;;;26.30;97.10;;;;;;4913698;29;20424;-68
2022/09/01 12:47:33;;;;;;;0.80;0.60;;;26.60;97.10;;;;;;4882610;29;20409;-69
2022/09/01 12:50:14;;;;;;;0.98;0.60;;;26.80;97.00;;;;;;4912583;29;20427;-69
2022/09/01 12:52:57;;;;;;;1.02;0.57;;;26.90;95.80;;;;;;4915179;29;20408;-70
2022/09/01 12:55:34;;;;;;;1.35;0.43;;;27.10;96.10;;;;;;4899888;29;21023;-70
2022/09/01 12:58:03;;;;;;;0.60;0.50;;;27.40;96.00;;;;;;4899394;29;20393;-70
2022/09/01 13:00:32;;;;;;;0.85;0.50;;;27.70;95.90;;;;;;4881324;29;20476;-70
2022/09/01 13:03:06;;;;;;;0.70;0.60;;;27.60;93.90;;;;;;4897870;29;20759;-70
2022/09/01 13:05:33;;;;;;;0.80;0.50;;;27.60;93.30;;;;;;4882263;29;20401;-70
2022/09/01 13:08:16;;;;;;;1.35;0.60;;;27.70;93.20;;;;;;4884526;29;20476;-68
2022/09/01 13:10:49;;;;;;;0.45;0.40;;;27.60;93.10;;;;;;4882989;29;20411;-68
2022/09/01 13:13:16;;;;;;;1.40;0.60;;;27.50;93.30;;;;;;4897799;29;20385;-70
2022/09/01 13:15:47;;;;;;;2.50;0.70;;;27.50;93.10;;;;;;4878701;29;20833;-70